Time;durP1;ratioP1;P1;durP2;ratioP2;P2;SDS_P1;SDS_P2;PMS_P1;PMS_P2;Temp;Humidity;BMP_temperature;BMP_pressure;BME280_temperature;BME280_humidity;BME280_pressure;Samples;Min_cycle;Max_cycle;Signal;HPM_P1;HPM_P2
2021/05/13 00:01:51;;;;;;;5.35;2.42;;;19.60;61.80;;;;;;5074029;28;20488;-78
2021/05/13 00:04:16;;;;;;;5.10;1.80;;;19.60;61.80;;;;;;5073761;28;20024;-82
2021/05/13 00:06:42;;;;;;;4.00;1.77;;;19.60;61.80;;;;;;5073906;28;20087;-79
2021/05/13 00:09:10;;;;;;;4.63;1.63;;;19.60;61.70;;;;;;5073708;28;20029;-82
2021/05/13 00:11:37;;;;;;;4.43;1.83;;;19.60;61.60;;;;;;5073775;28;20107;-83
2021/05/13 00:14:05;;;;;;;3.83;1.55;;;19.60;61.60;;;;;;5072483;28;20024;-81
2021/05/13 00:16:33;;;;;;;4.30;1.77;;;19.50;61.60;;;;;;5073840;28;20102;-83
2021/05/13 00:19:04;;;;;;;6.20;1.92;;;19.50;61.60;;;;;;5072184;28;20109;-83
2021/05/13 00:21:29;;;;;;;6.70;1.95;;;19.50;61.50;;;;;;5073838;28;20485;-82
2021/05/13 00:23:55;;;;;;;6.15;1.77;;;19.50;61.50;;;;;;5073471;28;20112;-82
2021/05/13 00:26:35;;;;;;;5.03;1.80;;;19.50;61.50;;;;;;5073568;28;20025;-79
2021/05/13 00:29:06;;;;;;;4.40;1.80;;;19.50;61.50;;;;;;5072900;28;20112;-77
2021/05/13 00:31:32;;;;;;;3.72;1.52;;;19.50;61.50;;;;;;5073346;28;20032;-73
2021/05/13 00:34:00;;;;;;;6.78;2.30;;;19.50;61.50;;;;;;5073605;28;20024;-81
2021/05/13 00:36:30;;;;;;;4.50;2.00;;;19.50;61.40;;;;;;5072953;28;20107;-79
2021/05/13 00:38:56;;;;;;;5.65;1.70;;;19.40;61.30;;;;;;5073434;28;20017;-84
2021/05/13 00:41:22;;;;;;;5.53;1.92;;;19.40;61.40;;;;;;5073133;28;20064;-81
2021/05/13 00:43:49;;;;;;;5.80;1.60;;;19.40;61.30;;;;;;5073072;28;20098;-82
2021/05/13 00:46:15;;;;;;;5.93;1.73;;;19.40;61.20;;;;;;5072800;28;20108;-80
2021/05/13 00:48:43;;;;;;;4.93;2.33;;;19.40;61.20;;;;;;5073434;28;20036;-80
2021/05/13 00:51:09;;;;;;;4.22;1.65;;;19.40;61.20;;;;;;5073123;28;20107;-80
2021/05/13 00:53:34;;;;;;;4.18;1.60;;;19.40;61.20;;;;;;5073017;28;20104;-76
2021/05/13 00:56:00;;;;;;;3.38;1.20;;;19.40;61.90;;;;;;5073003;28;20078;-80
2021/05/13 00:58:29;;;;;;;4.78;1.98;;;19.40;61.80;;;;;;5072871;28;20511;-78
2021/05/13 01:03:20;;;;;;;5.25;1.70;;;19.40;61.10;;;;;;5072829;28;20074;-76
2021/05/13 01:05:46;;;;;;;6.57;1.92;;;19.40;61.10;;;;;;5072879;28;20074;-79
2021/05/13 01:08:12;;;;;;;5.97;1.80;;;19.40;61.00;;;;;;5073108;28;20507;-78
2021/05/13 01:10:39;;;;;;;6.40;2.00;;;19.40;61.00;;;;;;5072588;28;20105;-80
2021/05/13 01:13:09;;;;;;;5.38;1.90;;;19.30;60.90;;;;;;5071574;28;20036;-81
2021/05/13 01:15:38;;;;;;;5.18;1.75;;;19.40;61.00;;;;;;5071936;28;20396;-79
2021/05/13 01:20:32;;;;;;;5.68;1.55;;;19.30;60.90;;;;;;5072424;28;20062;-78
2021/05/13 01:22:58;;;;;;;5.82;2.15;;;19.40;60.90;;;;;;5072617;28;20047;-81
2021/05/13 01:25:26;;;;;;;7.35;2.35;;;19.30;60.90;;;;;;5071872;28;20074;-79
2021/05/13 01:28:01;;;;;;;8.52;2.47;;;19.30;60.90;;;;;;5071180;28;20031;-79
2021/05/13 01:30:28;;;;;;;;;;;19.30;60.80;;;;;;5072551;28;20021;-77
2021/05/13 01:32:57;;;;;;;8.10;2.47;;;19.30;60.90;;;;;;5072371;28;19904;-72
2021/05/13 01:35:23;;;;;;;5.43;2.08;;;19.30;60.90;;;;;;5072068;28;20025;-82
2021/05/13 01:38:12;;;;;;;5.25;2.10;;;19.30;60.80;;;;;;5072269;28;20146;-81
2021/05/13 01:40:38;;;;;;;4.22;1.88;;;19.30;60.80;;;;;;5071910;28;20470;-80
2021/05/13 01:43:05;;;;;;;4.78;1.83;;;19.30;60.70;;;;;;5072158;28;20455;-80
2021/05/13 01:45:31;;;;;;;4.80;2.22;;;19.30;60.70;;;;;;5071894;28;20044;-79
2021/05/13 01:48:02;;;;;;;6.57;1.92;;;19.30;60.70;;;;;;5071348;28;20134;-78
2021/05/13 01:50:34;;;;;;;5.35;1.77;;;19.20;60.60;;;;;;5070752;28;20029;-78
2021/05/13 01:53:06;;;;;;;7.90;2.13;;;19.20;60.70;;;;;;5071925;28;20027;-79
2021/05/13 01:55:33;;;;;;;6.15;1.70;;;19.30;60.70;;;;;;5071865;28;20028;-80
2021/05/13 01:57:59;;;;;;;4.18;1.77;;;19.30;60.60;;;;;;5071940;28;20034;-79
2021/05/13 02:00:25;;;;;;;4.80;1.75;;;19.20;60.50;;;;;;5071505;28;20017;-79
2021/05/13 02:02:51;;;;;;;4.43;2.00;;;19.30;60.60;;;;;;5071734;28;20063;-75
2021/05/13 02:05:18;;;;;;;3.90;1.75;;;19.20;60.50;;;;;;5071602;28;20028;-73
2021/05/13 02:07:44;;;;;;;3.53;1.65;;;19.20;60.50;;;;;;5071952;28;20064;-74
2021/05/13 02:10:11;;;;;;;6.18;1.73;;;19.30;60.50;;;;;;5071562;28;20035;-81
2021/05/13 02:12:38;;;;;;;7.07;1.92;;;19.20;60.50;;;;;;5071343;28;20024;-81
2021/05/13 02:15:06;;;;;;;3.97;1.88;;;19.20;60.40;;;;;;5071123;28;20415;-80
2021/05/13 02:17:32;;;;;;;5.53;1.67;;;19.20;60.40;;;;;;5070753;28;20047;-83
2021/05/13 02:19:57;;;;;;;5.07;1.80;;;19.20;60.40;;;;;;5071574;28;20512;-81
2021/05/13 02:22:23;;;;;;;3.40;1.88;;;19.20;60.50;;;;;;5071326;28;20500;-82
2021/05/13 02:24:49;;;;;;;4.15;1.80;;;19.20;60.40;;;;;;5071499;28;20021;-81
2021/05/13 02:27:14;;;;;;;5.57;1.85;;;19.20;60.40;;;;;;5071371;28;20429;-78
2021/05/13 02:29:40;;;;;;;6.65;1.92;;;19.20;60.40;;;;;;5071632;28;20096;-79
2021/05/13 02:32:06;;;;;;;3.88;1.35;;;19.20;60.40;;;;;;5070112;28;20036;-77
2021/05/13 02:34:31;;;;;;;6.03;1.90;;;19.20;60.40;;;;;;5071052;28;20476;-78
2021/05/13 02:36:57;;;;;;;4.50;1.77;;;19.20;60.40;;;;;;5071264;28;20086;-72
2021/05/13 02:39:22;;;;;;;5.85;2.20;;;19.20;60.50;;;;;;5070972;28;20476;-79
2021/05/13 02:41:48;;;;;;;4.80;2.10;;;19.10;60.30;;;;;;5071203;28;20503;-80
2021/05/13 02:44:13;;;;;;;6.38;1.50;;;19.10;60.30;;;;;;5071472;28;20027;-76
2021/05/13 02:46:39;;;;;;;3.95;1.70;;;19.10;60.30;;;;;;5071079;28;20028;-76
2021/05/13 02:49:05;;;;;;;5.80;1.95;;;19.20;60.30;;;;;;5071043;28;20484;-78
2021/05/13 02:51:31;;;;;;;7.32;2.03;;;19.20;61.00;;;;;;5070927;28;20499;-78
2021/05/13 02:53:57;;;;;;;2.88;1.42;;;19.10;60.20;;;;;;5071220;28;20032;-78
2021/05/13 02:56:22;;;;;;;4.78;1.70;;;19.10;60.20;;;;;;5070944;28;20035;-78
2021/05/13 02:58:50;;;;;;;5.28;1.45;;;19.10;60.20;;;;;;5071120;28;20435;-78
2021/05/13 03:01:26;;;;;;;5.75;1.80;;;19.10;60.20;;;;;;5068693;28;20144;-77
2021/05/13 03:03:54;;;;;;;3.72;1.27;;;19.10;60.10;;;;;;5073440;28;20059;-73
2021/05/13 03:06:23;;;;;;;4.88;1.65;;;19.10;60.10;;;;;;5074780;28;20025;-77
2021/05/13 03:08:53;;;;;;;3.47;1.35;;;19.10;60.10;;;;;;5074744;28;20492;-78
2021/05/13 03:11:20;;;;;;;3.70;1.55;;;19.10;60.10;;;;;;5073547;28;20075;-76
2021/05/13 03:13:48;;;;;;;3.20;1.48;;;19.10;60.20;;;;;;5074989;28;20078;-76
2021/05/13 03:16:13;;;;;;;9.80;2.33;;;19.10;60.10;;;;;;5074868;28;20040;-72
2021/05/13 03:18:39;;;;;;;4.90;1.70;;;19.10;60.10;;;;;;5074770;28;20021;-72
2021/05/13 03:21:12;;;;;;;5.75;1.80;;;19.10;60.10;;;;;;5074919;28;20032;-72
2021/05/13 03:24:15;;;;;;;5.25;1.65;;;19.10;60.10;;;;;;5074887;28;20028;-78
2021/05/13 03:29:05;;;;;;;4.90;2.00;;;19.10;60.10;;;;;;5054699;28;20045;-78
2021/05/13 03:31:31;;;;;;;4.68;1.67;;;19.00;60.10;;;;;;5054498;28;20078;-78
2021/05/13 03:33:56;;;;;;;5.13;1.80;;;19.00;60.00;;;;;;5054632;28;20419;-78
2021/05/13 03:36:22;;;;;;;4.95;1.50;;;19.00;60.10;;;;;;5054357;28;20032;-78
2021/05/13 03:38:49;;;;;;;6.97;2.05;;;19.00;60.10;;;;;;5069777;28;20477;-80
2021/05/13 03:41:14;;;;;;;3.88;1.58;;;19.00;60.00;;;;;;5054596;28;20412;-80
2021/05/13 03:43:40;;;;;;;5.60;2.08;;;19.00;60.00;;;;;;5053533;28;20515;-78
2021/05/13 03:46:06;;;;;;;5.97;1.83;;;19.00;60.00;;;;;;5060377;28;20653;-80
2021/05/13 03:48:31;;;;;;;5.82;1.80;;;19.00;60.00;;;;;;5074102;28;20040;-79
2021/05/13 03:50:57;;;;;;;5.20;1.98;;;19.00;60.00;;;;;;5074357;28;20024;-76
2021/05/13 03:53:22;;;;;;;3.97;1.73;;;19.00;59.90;;;;;;5073946;28;20484;-78
2021/05/13 03:55:51;;;;;;;6.03;2.05;;;19.00;60.00;;;;;;5073086;28;20028;-78
2021/05/13 03:58:24;;;;;;;4.35;2.03;;;19.00;59.90;;;;;;5073336;28;20044;-75
2021/05/13 04:03:19;;;;;;;3.78;1.90;;;19.00;59.90;;;;;;5073890;28;20016;-74
2021/05/13 04:05:45;;;;;;;6.18;2.22;;;19.00;59.90;;;;;;5074307;28;20032;-72
2021/05/13 04:08:12;;;;;;;4.32;2.00;;;19.00;59.90;;;;;;5073985;28;20032;-78
2021/05/13 04:10:39;;;;;;;5.00;2.22;;;19.00;59.90;;;;;;5073930;28;20088;-77
2021/05/13 04:13:08;;;;;;;5.38;2.08;;;19.00;59.90;;;;;;5073441;28;20017;-78
2021/05/13 04:15:34;;;;;;;7.32;2.28;;;19.00;59.90;;;;;;5073527;28;20095;-79
2021/05/13 04:18:00;;;;;;;6.25;2.28;;;19.00;59.90;;;;;;5073773;28;20526;-77
2021/05/13 04:20:26;;;;;;;5.35;2.00;;;19.00;59.90;;;;;;5072850;28;20024;-76
2021/05/13 04:22:51;;;;;;;5.93;2.33;;;19.00;59.90;;;;;;5073773;28;20040;-78
2021/05/13 04:25:17;;;;;;;7.80;2.25;;;19.00;59.90;;;;;;5073405;28;20028;-78
2021/05/13 04:27:43;;;;;;;5.00;2.20;;;18.90;59.90;;;;;;5073934;28;20028;-73
2021/05/13 04:30:10;;;;;;;7.43;2.40;;;19.00;59.90;;;;;;5073469;28;20049;-73
2021/05/13 04:32:36;;;;;;;5.90;2.22;;;18.90;59.90;;;;;;5073637;28;20111;-73
2021/05/13 04:35:02;;;;;;;7.70;2.60;;;18.90;59.90;;;;;;5073406;28;20615;-72
2021/05/13 04:37:28;;;;;;;5.22;2.55;;;18.90;59.80;;;;;;5073167;28;20380;-78
2021/05/13 04:39:53;;;;;;;5.68;2.08;;;18.90;59.80;;;;;;5073393;28;20037;-79
2021/05/13 04:42:19;;;;;;;6.30;2.45;;;18.90;59.80;;;;;;5073114;28;20112;-80
2021/05/13 04:44:45;;;;;;;4.45;2.22;;;18.90;59.80;;;;;;5073530;28;20032;-79
2021/05/13 04:47:34;;;;;;;8.38;1.90;;;18.90;59.80;;;;;;5072080;28;20028;-79
2021/05/13 04:49:57;;;;;;;5.38;2.20;;;18.90;59.80;;;;;;5072885;28;20510;-79
2021/05/13 04:52:24;;;;;;;4.00;2.10;;;18.90;59.80;;;;;;5073015;28;20108;-75
2021/05/13 04:54:51;;;;;;;4.63;2.40;;;18.90;59.70;;;;;;5072402;28;20110;-78
2021/05/13 04:57:17;;;;;;;6.03;2.35;;;18.90;59.70;;;;;;5073058;28;20425;-73
2021/05/13 04:59:47;;;;;;;6.75;2.75;;;18.90;59.80;;;;;;5073285;28;20024;-77
2021/05/13 05:02:13;;;;;;;4.18;2.33;;;18.90;59.70;;;;;;5070874;28;20044;-75
2021/05/13 05:04:38;;;;;;;4.75;2.10;;;18.90;60.40;;;;;;5072893;28;20498;-79
2021/05/13 05:07:04;;;;;;;5.63;2.75;;;18.80;59.70;;;;;;5071311;28;20115;-72
2021/05/13 05:09:30;;;;;;;5.13;2.78;;;18.90;59.80;;;;;;5072595;28;20404;-79
2021/05/13 05:11:56;;;;;;;4.88;2.53;;;18.80;59.70;;;;;;5072856;28;20107;-78
2021/05/13 05:14:21;;;;;;;8.18;3.22;;;18.90;59.80;;;;;;5072601;28;20023;-77
2021/05/13 05:16:47;;;;;;;6.70;2.40;;;18.90;59.80;;;;;;5072362;28;20032;-77
2021/05/13 05:19:13;;;;;;;7.45;2.55;;;18.80;59.80;;;;;;5072334;28;20021;-81
2021/05/13 05:21:38;;;;;;;6.57;2.60;;;18.80;59.80;;;;;;5072069;28;20041;-78
2021/05/13 05:24:05;;;;;;;5.85;2.53;;;18.80;59.80;;;;;;5072405;28;20077;-78
2021/05/13 05:26:30;;;;;;;4.63;1.85;;;18.80;59.70;;;;;;5071630;28;20399;-80
2021/05/13 05:28:56;;;;;;;6.55;2.42;;;18.80;59.70;;;;;;5072412;28;20021;-75
2021/05/13 05:31:22;;;;;;;3.30;1.73;;;18.80;59.80;;;;;;5072098;28;20147;-75
2021/05/13 05:33:47;;;;;;;4.10;2.20;;;18.80;59.80;;;;;;5072601;28;20095;-72
2021/05/13 05:36:13;;;;;;;4.78;2.55;;;18.80;59.80;;;;;;5072230;28;20020;-81
2021/05/13 05:38:39;;;;;;;7.70;2.67;;;18.80;59.80;;;;;;5072238;28;20100;-79
2021/05/13 05:41:04;;;;;;;5.55;2.72;;;18.80;59.80;;;;;;5072167;28;20067;-79
2021/05/13 05:43:30;;;;;;;6.97;2.10;;;18.80;59.80;;;;;;5071877;28;20021;-77
2021/05/13 05:45:56;;;;;;;5.32;2.30;;;18.80;59.80;;;;;;5071366;28;20021;-74
2021/05/13 05:48:21;;;;;;;7.72;2.70;;;18.80;59.80;;;;;;5071432;28;20016;-75
2021/05/13 05:50:47;;;;;;;7.68;2.33;;;18.80;59.80;;;;;;5071122;28;20028;-74
2021/05/13 05:53:12;;;;;;;5.00;2.38;;;18.80;59.80;;;;;;5071755;28;20102;-73
2021/05/13 05:55:40;;;;;;;9.18;2.80;;;18.80;59.80;;;;;;5070671;28;20024;-72
2021/05/13 05:58:06;;;;;;;6.18;3.13;;;18.80;59.80;;;;;;5071899;28;20538;-72
2021/05/13 06:00:32;;;;;;;5.28;2.33;;;18.80;59.90;;;;;;5071479;28;20033;-72
2021/05/13 06:02:58;;;;;;;3.75;1.80;;;18.80;59.80;;;;;;5071826;28;20038;-79
2021/05/13 06:05:24;;;;;;;4.65;2.22;;;18.80;59.80;;;;;;5071555;28;20029;-79
2021/05/13 06:07:51;;;;;;;5.35;2.50;;;18.80;59.90;;;;;;5070257;28;20028;-79
2021/05/13 06:10:17;;;;;;;5.57;2.70;;;18.80;59.90;;;;;;5071642;28;20504;-79
2021/05/13 06:12:44;;;;;;;5.55;2.42;;;18.80;59.90;;;;;;5071697;28;20024;-76
2021/05/13 06:15:15;;;;;;;7.70;2.45;;;18.80;59.90;;;;;;5070819;28;20048;-78
2021/05/13 06:17:41;;;;;;;4.20;2.15;;;18.80;59.90;;;;;;5071558;28;20500;-78
2021/05/13 06:20:15;;;;;;;6.88;2.15;;;18.80;59.90;;;;;;5071496;28;20060;-75
2021/05/13 06:22:41;;;;;;;4.50;2.33;;;18.80;59.90;;;;;;5071463;28;20040;-76
2021/05/13 06:25:07;;;;;;;6.32;2.47;;;18.80;59.90;;;;;;5070984;28;20093;-74
2021/05/13 06:27:32;;;;;;;4.57;1.98;;;18.80;59.90;;;;;;5070816;28;20468;-74
2021/05/13 06:29:58;;;;;;;4.60;1.83;;;18.80;59.90;;;;;;5071326;28;20052;-73
2021/05/13 06:32:25;;;;;;;5.82;2.47;;;18.80;59.90;;;;;;5071158;28;20016;-78
2021/05/13 06:34:51;;;;;;;4.80;2.03;;;18.80;59.90;;;;;;5069644;28;20032;-73
2021/05/13 06:37:17;;;;;;;6.28;2.20;;;18.80;59.90;;;;;;5071260;28;20024;-73
2021/05/13 06:39:42;;;;;;;5.32;2.05;;;18.80;60.00;;;;;;5071290;28;20109;-72
2021/05/13 06:42:08;;;;;;;5.47;1.98;;;18.80;59.90;;;;;;5070845;28;20025;-74
2021/05/13 06:44:34;;;;;;;5.05;2.42;;;18.70;59.90;;;;;;5071136;28;20031;-76
2021/05/13 06:47:00;;;;;;;5.53;2.60;;;18.70;59.90;;;;;;5070473;28;20028;-78
2021/05/13 06:49:26;;;;;;;5.47;2.33;;;18.80;60.00;;;;;;5070940;28;20029;-78
2021/05/13 06:51:51;;;;;;;4.05;2.10;;;18.70;60.00;;;;;;5071276;28;20040;-72
2021/05/13 06:54:18;;;;;;;5.03;2.38;;;18.70;60.00;;;;;;5069778;28;20025;-74
2021/05/13 06:56:43;;;;;;;5.10;1.98;;;18.70;60.00;;;;;;5071011;28;20074;-75
2021/05/13 06:59:09;;;;;;;5.85;2.40;;;18.70;60.00;;;;;;5070741;28;20021;-74
2021/05/13 07:01:36;;;;;;;4.78;2.05;;;18.70;60.00;;;;;;5070864;28;20036;-72
2021/05/13 07:04:05;;;;;;;5.97;2.45;;;18.70;60.00;;;;;;5070742;28;20012;-75
2021/05/13 07:06:33;;;;;;;5.60;2.42;;;18.70;60.00;;;;;;5070428;28;20041;-75
2021/05/13 07:08:59;;;;;;;3.78;1.77;;;18.70;60.00;;;;;;5070950;28;20415;-71
2021/05/13 07:11:25;;;;;;;6.10;1.88;;;18.70;60.00;;;;;;5070173;28;20020;-76
2021/05/13 07:13:50;;;;;;;4.15;1.73;;;18.70;59.90;;;;;;5070903;28;20039;-75
2021/05/13 07:16:16;;;;;;;3.67;1.80;;;18.70;59.90;;;;;;5069335;28;20036;-75
2021/05/13 07:18:41;;;;;;;5.88;1.90;;;18.70;59.90;;;;;;5070441;28;20492;-77
2021/05/13 07:21:07;;;;;;;6.00;2.00;;;18.70;59.90;;;;;;5070787;28;20068;-78
2021/05/13 07:23:32;;;;;;;6.22;1.90;;;18.70;59.90;;;;;;5070593;28;20024;-81
2021/05/13 07:25:59;;;;;;;4.28;1.77;;;18.70;59.90;;;;;;5070741;28;20046;-79
2021/05/13 07:28:26;;;;;;;5.07;1.83;;;18.70;59.80;;;;;;5070721;28;20025;-80
2021/05/13 07:30:51;;;;;;;4.95;1.88;;;18.70;59.80;;;;;;5070552;28;20020;-79
2021/05/13 07:33:17;;;;;;;2.97;1.30;;;18.70;59.80;;;;;;5070236;28;20455;-79
2021/05/13 07:35:43;;;;;;;5.50;2.40;;;18.70;59.80;;;;;;5069056;28;20035;-71
2021/05/13 07:38:08;;;;;;;4.88;1.95;;;18.70;59.80;;;;;;5070584;28;20431;-77
2021/05/13 07:40:36;;;;;;;3.95;1.73;;;18.70;60.40;;;;;;5070584;28;20086;-80
2021/05/13 07:43:02;;;;;;;3.70;1.45;;;18.70;59.70;;;;;;5070687;28;20025;-78
2021/05/13 07:45:28;;;;;;;5.97;1.92;;;18.70;59.70;;;;;;5069920;28;20090;-80
2021/05/13 07:47:54;;;;;;;4.30;1.65;;;18.70;59.70;;;;;;5071215;28;20023;-74
2021/05/13 07:50:22;;;;;;;4.75;1.42;;;18.60;59.60;;;;;;5073966;28;20059;-79
2021/05/13 07:52:49;;;;;;;6.28;1.98;;;18.70;59.70;;;;;;5074116;28;20031;-79
2021/05/13 07:55:15;;;;;;;5.53;1.98;;;18.70;59.70;;;;;;5073994;28;20028;-75
2021/05/13 07:57:41;;;;;;;4.45;1.70;;;18.70;59.70;;;;;;5074173;28;20008;-73
2021/05/13 08:00:08;;;;;;;6.90;2.03;;;18.70;59.70;;;;;;5074222;28;20115;-77
2021/05/13 08:02:33;;;;;;;4.72;1.60;;;18.70;59.70;;;;;;5073728;28;20433;-74
2021/05/13 08:04:59;;;;;;;4.55;1.90;;;18.70;59.70;;;;;;5073679;28;20063;-74
2021/05/13 08:07:25;;;;;;;4.28;2.03;;;18.70;59.60;;;;;;5073786;28;20499;-75
2021/05/13 08:09:51;;;;;;;3.28;1.50;;;18.70;59.60;;;;;;5074299;28;20056;-73
2021/05/13 08:12:17;;;;;;;3.97;1.60;;;18.70;59.70;;;;;;5073498;28;20040;-73
2021/05/13 08:14:44;;;;;;;3.50;1.40;;;18.70;59.70;;;;;;5073761;28;20447;-73
2021/05/13 08:17:10;;;;;;;4.70;1.73;;;18.70;59.70;;;;;;5073619;28;20047;-76
2021/05/13 08:19:37;;;;;;;4.90;1.73;;;18.70;59.70;;;;;;5073990;28;20551;-75
2021/05/13 08:22:03;;;;;;;3.53;1.73;;;18.70;59.70;;;;;;5073654;28;20032;-77
2021/05/13 08:24:29;;;;;;;6.00;1.40;;;18.70;59.70;;;;;;5073092;28;20642;-77
2021/05/13 08:26:57;;;;;;;5.10;1.60;;;18.70;59.70;;;;;;5073859;28;20021;-76
2021/05/13 08:29:24;;;;;;;4.82;1.70;;;18.70;59.70;;;;;;5073743;28;20024;-75
2021/05/13 08:31:50;;;;;;;5.53;1.30;;;18.70;59.70;;;;;;5073397;28;20032;-76
2021/05/13 08:34:16;;;;;;;3.85;1.45;;;18.70;59.70;;;;;;5072653;28;20309;-75
2021/05/13 08:36:42;;;;;;;4.15;1.88;;;18.70;59.70;;;;;;5073710;28;20071;-79
2021/05/13 08:39:07;;;;;;;4.43;1.60;;;18.70;59.70;;;;;;5073230;28;20052;-79
2021/05/13 08:41:33;;;;;;;4.25;1.42;;;18.60;59.70;;;;;;5072354;28;20033;-77
2021/05/13 08:43:59;;;;;;;2.38;1.15;;;18.70;59.80;;;;;;5073349;28;20519;-77
2021/05/13 08:46:25;;;;;;;3.05;1.30;;;18.70;59.80;;;;;;5073437;28;20029;-76
2021/05/13 08:48:51;;;;;;;4.95;1.50;;;18.70;59.80;;;;;;5073239;28;20025;-75
2021/05/13 08:51:18;;;;;;;4.35;1.65;;;18.70;59.80;;;;;;5070718;28;20028;-77
2021/05/13 08:53:52;;;;;;;3.70;1.30;;;18.70;59.90;;;;;;5072807;28;20028;-74
2021/05/13 08:56:19;;;;;;;4.22;1.27;;;18.70;59.90;;;;;;5072896;28;20435;-73
2021/05/13 08:58:45;;;;;;;4.03;1.38;;;18.70;59.90;;;;;;5072814;28;20040;-73
2021/05/13 09:01:18;;;;;;;3.58;1.50;;;18.60;59.90;;;;;;5071029;28;20582;-77
2021/05/13 09:03:46;;;;;;;3.83;1.52;;;18.70;60.00;;;;;;5052923;28;20075;-79
2021/05/13 09:06:30;;;;;;;4.68;1.23;;;18.70;60.00;;;;;;5052723;28;20021;-81
2021/05/13 09:09:09;;;;;;;3.67;1.40;;;18.80;59.80;;;;;;5053142;28;20025;-81
2021/05/13 09:11:35;;;;;;;2.88;1.23;;;18.90;59.70;;;;;;5052847;28;20028;-77
2021/05/13 09:14:02;;;;;;;3.33;1.25;;;18.90;59.70;;;;;;5052792;28;20036;-81
2021/05/13 09:16:35;;;;;;;4.80;1.60;;;19.00;59.80;;;;;;5052502;28;20041;-73
2021/05/13 09:19:32;;;;;;;4.25;1.10;;;19.10;59.80;;;;;;5052828;28;20025;-82
2021/05/13 09:22:07;;;;;;;5.50;1.40;;;19.20;59.90;;;;;;5044420;28;20076;-82
2021/05/13 09:24:51;;;;;;;5.75;2.05;;;19.30;60.10;;;;;;5061300;28;20073;-78
2021/05/13 09:27:45;;;;;;;3.85;1.65;;;19.40;60.50;;;;;;5052434;28;20079;-77
2021/05/13 09:30:22;;;;;;;6.50;1.08;;;19.40;60.50;;;;;;5084585;28;20029;-80
2021/05/13 09:32:59;;;;;;;4.00;1.23;;;19.50;60.70;;;;;;5052386;28;20384;-82
2021/05/13 09:35:31;;;;;;;4.13;1.58;;;19.50;60.80;;;;;;5084475;28;20025;-80
2021/05/13 09:38:02;;;;;;;5.28;1.70;;;19.60;61.00;;;;;;5052822;28;20487;-74
2021/05/13 09:40:42;;;;;;;4.78;1.52;;;19.60;61.20;;;;;;5054601;28;20431;-85
2021/05/13 09:43:21;;;;;;;4.63;1.50;;;19.60;61.60;;;;;;5072966;28;20039;-81
2021/05/13 09:45:51;;;;;;;5.57;2.08;;;19.70;61.60;;;;;;5072510;28;20029;-83
2021/05/13 09:48:36;;;;;;;3.25;1.48;;;19.80;62.00;;;;;;5070828;28;20119;-86
2021/05/13 09:51:28;;;;;;;3.35;1.33;;;19.80;62.20;;;;;;5071870;28;20035;-77
2021/05/13 09:54:17;;;;;;;5.38;1.77;;;19.90;62.20;;;;;;5071993;28;20021;-81
2021/05/13 09:56:46;;;;;;;4.03;1.30;;;19.90;62.10;;;;;;5072109;28;20043;-79
2021/05/13 09:59:28;;;;;;;4.78;1.35;;;20.00;62.00;;;;;;5072238;28;20042;-83
2021/05/13 10:01:58;;;;;;;5.50;1.48;;;20.10;62.50;;;;;;5071985;28;20055;-79
2021/05/13 10:04:25;;;;;;;6.40;1.02;;;20.10;62.70;;;;;;5071621;28;20050;-80
2021/05/13 10:06:50;;;;;;;4.13;1.00;;;20.10;62.80;;;;;;5071832;28;20093;-81
2021/05/13 10:09:18;;;;;;;4.20;0.82;;;20.10;63.20;;;;;;5071778;28;20519;-79
2021/05/13 10:11:48;;;;;;;4.97;1.00;;;20.20;63.10;;;;;;5069851;28;20480;-79
2021/05/13 10:14:13;;;;;;;5.72;1.58;;;20.20;63.00;;;;;;5072795;28;20111;-86
2021/05/13 10:16:41;;;;;;;2.63;1.42;;;20.20;63.10;;;;;;5072059;28;20104;-82
2021/05/13 10:19:11;;;;;;;3.58;1.70;;;20.20;63.20;;;;;;5071588;28;20021;-74
2021/05/13 10:21:41;;;;;;;5.90;1.60;;;20.30;63.20;;;;;;5071133;28;20496;-73
2021/05/13 10:24:07;;;;;;;2.17;1.05;;;20.30;63.10;;;;;;5070697;28;20032;-74
2021/05/13 10:26:35;;;;;;;2.05;0.90;;;20.30;62.60;;;;;;5070132;28;20059;-77
2021/05/13 10:29:21;;;;;;;3.50;0.88;;;20.30;63.20;;;;;;5069783;28;20104;-80
2021/05/13 10:32:01;;;;;;;;;;;20.30;62.80;;;;;;5051887;28;20090;-81
2021/05/13 10:34:59;;;;;;;2.75;0.68;;;20.30;62.50;;;;;;5051458;28;19912;-82
2021/05/13 10:37:26;;;;;;;2.13;0.50;;;20.20;62.30;;;;;;5043480;28;20446;-74
2021/05/13 10:40:20;;;;;;;2.65;0.70;;;20.20;62.10;;;;;;5051344;28;20067;-76
2021/05/13 10:42:56;;;;;;;1.05;0.50;;;20.20;62.00;;;;;;5070686;28;20032;-80
2021/05/13 10:45:24;;;;;;;1.88;0.80;;;20.20;62.00;;;;;;5071106;28;20033;-75
2021/05/13 10:48:14;;;;;;;2.33;0.60;;;20.20;61.90;;;;;;5071042;28;20043;-79
2021/05/13 10:50:45;;;;;;;2.50;0.60;;;20.20;62.10;;;;;;5070336;28;20024;-79
2021/05/13 10:53:33;;;;;;;4.18;0.65;;;20.10;62.00;;;;;;5070855;28;20370;-81
2021/05/13 10:56:17;;;;;;;3.92;0.60;;;20.10;62.10;;;;;;5069662;28;20442;-77
2021/05/13 10:58:57;;;;;;;2.10;0.60;;;20.10;62.10;;;;;;5071147;28;20073;-82
2021/05/13 11:01:32;;;;;;;1.35;0.70;;;20.10;62.10;;;;;;5070463;28;20040;-82
2021/05/13 11:04:36;;;;;;;1.52;0.80;;;20.10;62.00;;;;;;5071358;28;20067;-83
2021/05/13 11:07:05;;;;;;;2.47;0.60;;;20.00;62.00;;;;;;5070724;28;20041;-71
2021/05/13 11:12:10;;;;;;;4.25;0.68;;;20.00;62.00;;;;;;5070030;28;20468;-81
2021/05/13 11:17:58;;;;;;;1.73;0.50;;;20.00;62.70;;;;;;5056554;28;20456;-80
2021/05/13 11:20:23;;;;;;;5.60;0.60;;;20.00;62.70;;;;;;5070080;28;20047;-79
2021/05/13 11:22:58;;;;;;;3.42;0.75;;;20.00;63.00;;;;;;5071115;28;20400;-80
2021/05/13 11:25:38;;;;;;;0.50;0.40;;;20.10;63.00;;;;;;5074666;28;20025;-83
2021/05/13 11:28:42;;;;;;;1.40;0.40;;;20.00;62.90;;;;;;5073266;28;20023;-77
2021/05/13 11:31:08;;;;;;;1.95;0.60;;;20.00;62.70;;;;;;5074474;28;20028;-78
2021/05/13 11:33:51;;;;;;;6.93;0.95;;;20.00;62.50;;;;;;5072158;28;20023;-75
2021/05/13 11:36:40;;;;;;;2.05;0.55;;;20.00;62.50;;;;;;5070488;28;20024;-79
2021/05/13 11:39:12;;;;;;;1.33;0.70;;;20.00;62.50;;;;;;5105695;28;20029;-88
2021/05/13 11:41:39;;;;;;;4.95;0.55;;;20.00;62.50;;;;;;5074738;28;20025;-82
2021/05/13 11:44:05;;;;;;;1.67;0.63;;;20.00;62.70;;;;;;5072502;28;20025;-89
2021/05/13 11:46:31;;;;;;;1.60;0.50;;;20.00;62.80;;;;;;5073355;28;20066;-79
2021/05/13 11:48:57;;;;;;;1.55;0.70;;;20.00;64.00;;;;;;5074539;28;20039;-76
2021/05/13 11:51:25;;;;;;;2.05;0.60;;;20.00;63.00;;;;;;5074326;28;20021;-80
2021/05/13 11:53:54;;;;;;;4.40;0.80;;;20.00;62.80;;;;;;5074381;28;20480;-81
2021/05/13 11:56:20;;;;;;;1.67;0.60;;;20.00;62.90;;;;;;5074152;28;20488;-83
2021/05/13 11:58:49;;;;;;;2.42;0.43;;;20.10;62.90;;;;;;5073562;28;20025;-76
2021/05/13 12:01:22;;;;;;;4.53;0.70;;;20.10;62.70;;;;;;5074138;28;20518;-80
2021/05/13 12:03:50;;;;;;;2.58;0.73;;;20.10;62.90;;;;;;5074143;28;20036;-75
2021/05/13 12:06:16;;;;;;;3.72;0.65;;;20.20;62.80;;;;;;5072802;28;20043;-74
2021/05/13 12:08:41;;;;;;;5.85;0.88;;;20.20;63.30;;;;;;5074243;28;20012;-79
2021/05/13 12:11:23;;;;;;;1.50;0.75;;;20.20;63.50;;;;;;5073346;28;20032;-73
2021/05/13 12:13:54;;;;;;;2.88;0.90;;;20.10;64.00;;;;;;5070930;28;20529;-74
2021/05/13 12:16:21;;;;;;;1.70;0.85;;;20.00;64.10;;;;;;5073444;28;20032;-78
2021/05/13 12:18:52;;;;;;;4.30;0.80;;;20.00;64.70;;;;;;5073641;28;20032;-82
2021/05/13 12:21:19;;;;;;;3.70;0.90;;;19.90;65.10;;;;;;5073218;28;20111;-80
2021/05/13 12:23:46;;;;;;;2.10;0.73;;;19.90;65.60;;;;;;5073885;28;20103;-75
2021/05/13 12:26:14;;;;;;;4.38;1.05;;;19.80;65.70;;;;;;5072976;28;20032;-75
2021/05/13 12:28:43;;;;;;;5.15;1.25;;;19.80;66.20;;;;;;5073633;28;20048;-76
2021/05/13 12:31:08;;;;;;;2.70;1.00;;;19.80;66.50;;;;;;5073885;28;20032;-73
2021/05/13 12:33:40;;;;;;;4.82;0.90;;;19.80;67.10;;;;;;5072875;28;20020;-76
2021/05/13 12:36:11;;;;;;;2.63;1.13;;;19.70;66.90;;;;;;5071908;28;20028;-72
2021/05/13 12:38:42;;;;;;;4.93;1.10;;;19.70;67.30;;;;;;5074270;28;20550;-77
2021/05/13 12:41:10;;;;;;;9.60;3.63;;;19.70;66.90;;;;;;5062782;28;20033;-72
2021/05/13 12:43:37;;;;;;;6.82;3.33;;;19.70;66.90;;;;;;5073146;28;20028;-72
2021/05/13 12:46:20;;;;;;;4.93;2.30;;;19.70;67.00;;;;;;5072559;28;20031;-72
2021/05/13 12:48:46;;;;;;;4.40;1.80;;;19.70;67.30;;;;;;5070768;28;20488;-70
2021/05/13 12:51:18;;;;;;;5.97;2.33;;;19.70;68.50;;;;;;5068441;28;20039;-75
2021/05/13 12:53:56;;;;;;;3.95;1.67;;;19.70;69.80;;;;;;5071036;28;20017;-71
2021/05/13 12:56:33;;;;;;;3.95;1.60;;;19.70;67.80;;;;;;5069726;28;20020;-76
2021/05/13 12:59:10;;;;;;;3.28;1.58;;;19.70;68.70;;;;;;5082249;28;20019;-88
2021/05/13 13:01:38;;;;;;;5.25;1.30;;;19.70;68.10;;;;;;5081204;28;20456;-76
2021/05/13 13:04:06;;;;;;;8.05;1.80;;;19.70;68.00;;;;;;5075040;28;20028;-80
2021/05/13 13:06:45;;;;;;;3.63;1.33;;;19.80;67.80;;;;;;5086370;28;20115;-80
2021/05/13 13:09:11;;;;;;;2.80;1.45;;;19.80;67.20;;;;;;5079548;28;20148;-77
2021/05/13 13:11:38;;;;;;;4.40;1.13;;;19.80;66.80;;;;;;5080868;28;20465;-77
2021/05/13 13:14:08;;;;;;;4.28;1.23;;;19.80;66.60;;;;;;5074606;28;20527;-77